Station Historical Data
Daily Summary for March 5, 2012 Units:  Metric    English   Both
« Previous Day
Next Day »
Daily Weekly Monthly Yearly Custom
  High: Low: Average:
Temperature: 11.4 °C 3.4 °C 7.9 °C
Dew Point: 0.4 °C -6.7 °C -3.3 °C
Humidity: 65% 28% 46%
Wind Speed: 32.2km/h 0km/h 10.1km/h
Wind Gust: 37km/h - -
Wind- - SW
Pressure: 1030.4 hPa 1013.1 hPa -
Precipitation: 0 mm    
Historical Graphs
 
 
Tabular Data for March 5, 2012
Time Temperature Dew Point Pressure Wind Wind Speed Wind Gust Humidity Rainfall Rate (Hourly) Conditions
00:00 10.7 °C -2 °C 1013.4 hPa SW 19.3 km/h 24.1 km/h 41% 0 mm
00:01 10.7 °C -2 °C 1013.1 hPa WSW 17.7 km/h 24.1 km/h 41% 0 mm
00:06 10.8 °C -1.9 °C 1013.4 hPa SW 29 km/h 29 km/h 41% 0 mm
00:11 10.8 °C -1.6 °C 1013.4 hPa West 12.9 km/h 25.7 km/h 42% 0 mm
00:16 11 °C -1.7 °C 1013.1 hPa WSW 22.5 km/h 30.6 km/h 41% 0 mm
00:21 11.1 °C -1.9 °C 1013.4 hPa SW 29 km/h 37 km/h 40% 0 mm
00:26 11.2 °C -1.6 °C 1013.4 hPa WSW 16.1 km/h 32.2 km/h 41% 0 mm
00:31 11.3 °C -1.8 °C 1013.4 hPa SW 16.1 km/h 33.8 km/h 40% 0 mm
00:36 11.3 °C -1.4 °C 1013.4 hPa SW 17.7 km/h 25.7 km/h 41% 0 mm
00:37 11.3 °C -1.5 °C 1013.4 hPa WSW 22.5 km/h 27.4 km/h 41% 0 mm
00:42 11.4 °C -1.7 °C 1013.4 hPa SW 14.5 km/h 30.6 km/h 40% 0 mm
00:47 11.3 °C -1.4 °C 1013.8 hPa West 19.3 km/h 25.7 km/h 41% 0 mm
00:52 11.2 °C -1.6 °C 1013.4 hPa SW 12.9 km/h 27.4 km/h 41% 0 mm
00:57 11.2 °C -1.6 °C 1013.4 hPa WSW 19.3 km/h 30.6 km/h 41% 0 mm
01:02 11.2 °C -1.6 °C 1013.4 hPa SW 16.1 km/h 24.1 km/h 41% 0 mm
01:07 11.1 °C -1.3 °C 1013.4 hPa SW 16.1 km/h 27.4 km/h 42% 0 mm
01:12 11 °C -1.4 °C 1013.4 hPa WSW 12.9 km/h 24.1 km/h 42% 0 mm
01:17 10.9 °C -1.4 °C 1013.4 hPa WSW 22.5 km/h 27.4 km/h 42% 0 mm
01:22 10.9 °C -1.2 °C 1013.8 hPa West 17.7 km/h 19.3 km/h 43% 0 mm
01:27 10.8 °C -0.9 °C 1013.8 hPa West 16.1 km/h 22.5 km/h 44% 0 mm
01:32 10.8 °C -1.2 °C 1013.8 hPa West 12.9 km/h 19.3 km/h 43% 0 mm
01:37 10.8 °C -1 °C 1013.8 hPa WSW 12.9 km/h 17.7 km/h 44% 0 mm
01:42 10.7 °C -1.1 °C 1014.1 hPa West 14.5 km/h 19.3 km/h 44% 0 mm
01:47 10.7 °C -1.1 °C 1014.1 hPa West 12.9 km/h 25.7 km/h 44% 0 mm
01:52 10.8 °C -0.9 °C 1014.4 hPa West 8 km/h 19.3 km/h 44% 0 mm
01:57 10.8 °C -1 °C 1014.4 hPa West 17.7 km/h 24.1 km/h 44% 0 mm
02:02 10.8 °C -1 °C 1014.8 hPa WSW 16.1 km/h 20.9 km/h 44% 0 mm
02:07 10.8 °C -1 °C 1014.8 hPa West 11.3 km/h 17.7 km/h 44% 0 mm
02:12 10.8 °C -0.9 °C 1015.1 hPa West 11.3 km/h 12.9 km/h 44% 0 mm
02:17 10.8 °C -1 °C 1015.1 hPa West 8 km/h 16.1 km/h 44% 0 mm
02:23 10.8 °C -1 °C 1015.1 hPa West 12.9 km/h 17.7 km/h 44% 0 mm
02:28 10.8 °C -1 °C 1015.5 hPa WNW 16.1 km/h 16.1 km/h 44% 0 mm
02:33 10.8 °C -1 °C 1015.5 hPa WNW 8 km/h 17.7 km/h 44% 0 mm
02:38 10.7 °C -1.1 °C 1015.5 hPa WNW 12.9 km/h 20.9 km/h 44% 0 mm
02:43 10.6 °C -0.8 °C 1015.8 hPa WNW 8 km/h 14.5 km/h 45% 0 mm
02:48 10.6 °C -0.9 °C 1015.8 hPa West 9.7 km/h 14.5 km/h 45% 0 mm
02:53 10.6 °C -0.9 °C 1016.1 hPa WNW 12.9 km/h 19.3 km/h 45% 0 mm
02:58 10.6 °C -0.8 °C 1016.1 hPa West 20.9 km/h 22.5 km/h 45% 0 mm
03:03 10.7 °C -0.7 °C 1016.1 hPa WNW 11.3 km/h 25.7 km/h 45% 0 mm
03:08 10.7 °C -0.5 °C 1016.5 hPa WNW 11.3 km/h 27.4 km/h 46% 0 mm
03:13 10.7 °C -0.5 °C 1016.5 hPa WNW 16.1 km/h 19.3 km/h 46% 0 mm
03:18 10.5 °C -0.3 °C 1016.5 hPa NW 17.7 km/h 27.4 km/h 47% 0 mm
03:23 10.4 °C 0.2 °C 1016.8 hPa WNW 14.5 km/h 22.5 km/h 49% 0 mm
03:28 10.3 °C 0.4 °C 1016.8 hPa NW 11.3 km/h 17.7 km/h 50% 0 mm
03:33 10.2 °C 0.2 °C 1017.2 hPa WNW 12.9 km/h 16.1 km/h 50% 0 mm
03:38 10.1 °C 0.1 °C 1017.2 hPa West 29 km/h 29 km/h 50% 0 mm
03:43 9.9 °C -0.3 °C 1017.5 hPa WNW 17.7 km/h 30.6 km/h 49% 0 mm
03:48 9.8 °C -0.4 °C 1017.5 hPa WNW 14.5 km/h 19.3 km/h 49% 0 mm
03:53 9.4 °C -0.4 °C 1017.5 hPa NW 14.5 km/h 14.5 km/h 50% 0 mm
03:58 9.4 °C -0.5 °C 1017.5 hPa WNW 12.9 km/h 25.7 km/h 50% 0 mm
04:03 9.2 °C -0.7 °C 1017.8 hPa WNW 16.1 km/h 24.1 km/h 50% 0 mm
04:08 9.2 °C -1.3 °C 1018.2 hPa West 17.7 km/h 32.2 km/h 48% 0 mm
04:13 9.1 °C -1.9 °C 1018.2 hPa West 22.5 km/h 30.6 km/h 46% 0 mm
04:18 8.9 °C -2.3 °C 1018.2 hPa WNW 16.1 km/h 37 km/h 45% 0 mm
04:23 8.7 °C -2.6 °C 1018.5 hPa NW 19.3 km/h 25.7 km/h 45% 0 mm
04:28 8.5 °C -2.8 °C 1018.5 hPa NW 14.5 km/h 20.9 km/h 45% 0 mm
04:33 8.3 °C -2.6 °C 1018.8 hPa WNW 19.3 km/h 25.7 km/h 46% 0 mm
04:38 8.2 °C -2.7 °C 1018.8 hPa WNW 14.5 km/h 27.4 km/h 46% 0 mm
04:43 8 °C -2.6 °C 1019.2 hPa WNW 9.7 km/h 20.9 km/h 47% 0 mm
04:48 7.8 °C -2.5 °C 1019.2 hPa NW 19.3 km/h 29 km/h 48% 0 mm
04:53 7.7 °C -2.4 °C 1019.5 hPa WNW 14.5 km/h 19.3 km/h 49% 0 mm
04:58 7.6 °C -2.4 °C 1019.5 hPa WNW 12.9 km/h 20.9 km/h 49% 0 mm
05:03 7.4 °C -2.1 °C 1019.9 hPa NNW 11.3 km/h 20.9 km/h 51% 0 mm
05:08 7.2 °C -1.5 °C 1019.9 hPa NNW 12.9 km/h 30.6 km/h 54% 0 mm
05:13 6.8 °C -1.4 °C 1020.2 hPa NW 17.7 km/h 17.7 km/h 56% 0 mm
05:19 6.6 °C -1.3 °C 1020.2 hPa NW 11.3 km/h 29 km/h 57% 0 mm
05:23 6.4 °C -1.5 °C 1020.5 hPa NW 16.1 km/h 27.4 km/h 57% 0 mm
05:29 6.3 °C -1.8 °C 1020.9 hPa NW 32.2 km/h 32.2 km/h 56% 0 mm
05:34 6.1 °C -2.2 °C 1021.2 hPa NW 12.9 km/h 35.4 km/h 55% 0 mm
05:39 5.9 °C -2.4 °C 1021.2 hPa NW 19.3 km/h 29 km/h 55% 0 mm
05:44 5.8 °C -2.6 °C 1021.6 hPa NW 17.7 km/h 29 km/h 55% 0 mm
05:49 5.7 °C -2.4 °C 1021.6 hPa NW 19.3 km/h 33.8 km/h 56% 0 mm
05:54 5.4 °C -2.4 °C 1021.9 hPa NW 17.7 km/h 24.1 km/h 57% 0 mm
05:59 5.3 °C -2.5 °C 1021.9 hPa WNW 27.4 km/h 27.4 km/h 57% 0 mm
06:04 5.2 °C -2.3 °C 1022.2 hPa NW 19.3 km/h 22.5 km/h 58% 0 mm
06:09 5.1 °C -2.4 °C 1022.6 hPa WNW 20.9 km/h 33.8 km/h 58% 0 mm
06:14 5.1 °C -2.5 °C 1022.6 hPa NW 19.3 km/h 24.1 km/h 58% 0 mm
06:19 4.9 °C -2.4 °C 1022.6 hPa WNW 19.3 km/h 19.3 km/h 59% 0 mm
06:24 4.7 °C -2.4 °C 1022.9 hPa NW 14.5 km/h 17.7 km/h 60% 0 mm
06:29 4.6 °C -2.3 °C 1022.9 hPa NW 14.5 km/h 24.1 km/h 61% 0 mm
06:34 4.5 °C -2.3 °C 1023.2 hPa WNW 9.7 km/h 16.1 km/h 61% 0 mm
06:39 4.4 °C -2.4 °C 1023.2 hPa WNW 11.3 km/h 25.7 km/h 61% 0 mm
06:44 4.4 °C -2.4 °C 1023.6 hPa NW 12.9 km/h 22.5 km/h 61% 0 mm
06:49 4.4 °C -2.4 °C 1023.6 hPa WNW 12.9 km/h 17.7 km/h 61% 0 mm
06:54 4.2 °C -2.7 °C 1023.6 hPa WNW 14.5 km/h 19.3 km/h 61% 0 mm
06:59 4.1 °C -2.6 °C 1023.6 hPa NW 12.9 km/h 17.7 km/h 62% 0 mm
07:04 4.1 °C -2.6 °C 1023.9 hPa NW 8 km/h 16.1 km/h 62% 0 mm
07:09 3.8 °C -2.6 °C 1023.9 hPa NNW 8 km/h 11.3 km/h 63% 0 mm
07:14 3.6 °C -2.6 °C 1024.3 hPa NNW 9.7 km/h 9.7 km/h 64% 0 mm
07:19 3.5 °C -2.7 °C 1024.3 hPa NW 8 km/h 9.7 km/h 64% 0 mm
07:24 3.5 °C -2.4 °C 1024.6 hPa NW 4.8 km/h 9.7 km/h 65% 0 mm
07:29 3.4 °C -2.6 °C 1024.6 hPa NNW 8 km/h 11.3 km/h 65% 0 mm
07:34 3.4 °C -2.6 °C 1024.6 hPa NW 19.3 km/h 19.3 km/h 65% 0 mm
07:39 3.6 °C -2.6 °C 1024.9 hPa North 16.1 km/h 24.1 km/h 64% 0 mm
07:44 3.7 °C -2.7 °C 1024.9 hPa NNW 12.9 km/h 19.3 km/h 63% 0 mm
07:49 3.8 °C -2.8 °C 1024.9 hPa WNW 8 km/h 19.3 km/h 62% 0 mm
07:54 3.8 °C -2.6 °C 1025.3 hPa NNW 4.8 km/h 17.7 km/h 63% 0 mm
07:59 3.8 °C -2.6 °C 1025.3 hPa North 11.3 km/h 16.1 km/h 63% 0 mm
08:04 3.8 °C -2.8 °C 1025.3 hPa NW 16.1 km/h 22.5 km/h 62% 0 mm
08:09 3.8 °C -2.8 °C 1025.3 hPa NNW 14.5 km/h 24.1 km/h 62% 0 mm
08:14 3.9 °C -2.7 °C 1025.6 hPa NNE 16.1 km/h 17.7 km/h 62% 0 mm
08:19 3.9 °C -2.7 °C 1025.6 hPa NW 9.7 km/h 20.9 km/h 62% 0 mm
08:24 4 °C -2.6 °C 1026 hPa North 14.5 km/h 19.3 km/h 62% 0 mm
08:29 4.1 °C -2.8 °C 1026 hPa NW 14.5 km/h 22.5 km/h 61% 0 mm
08:34 4.1 °C -3 °C 1026 hPa NW 30.6 km/h 30.6 km/h 60% 0 mm
08:39 4.1 °C -3 °C 1026.3 hPa NW 22.5 km/h 30.6 km/h 60% 0 mm
08:44 4.1 °C -3.2 °C 1026.3 hPa NW 16.1 km/h 27.4 km/h 59% 0 mm
08:49 4.3 °C -2.8 °C 1026.6 hPa NW 12.9 km/h 22.5 km/h 60% 0 mm
08:54 4.3 °C -2.9 °C 1026.6 hPa NW 16.1 km/h 24.1 km/h 59% 0 mm
08:59 4.5 °C -2.6 °C 1027 hPa NW 8 km/h 19.3 km/h 60% 0 mm
09:04 4.8 °C -2.3 °C 1027 hPa NW 19.3 km/h 20.9 km/h 60% 0 mm
09:09 4.8 °C -2.8 °C 1027 hPa NW 11.3 km/h 24.1 km/h 58% 0 mm
09:14 4.9 °C -2.4 °C 1027.3 hPa North 17.7 km/h 22.5 km/h 59% 0 mm
09:19 4.9 °C -2.7 °C 1027.3 hPa NW 14.5 km/h 24.1 km/h 58% 0 mm
09:24 5.1 °C -2.8 °C 1027.3 hPa NNW 9.7 km/h 20.9 km/h 57% 0 mm
09:29 5.2 °C -2.9 °C 1027.7 hPa NNW 16.1 km/h 19.3 km/h 56% 0 mm
09:34 5.2 °C -2.8 °C 1027.7 hPa NW 11.3 km/h 24.1 km/h 56% 0 mm
09:39 5.3 °C -2.8 °C 1027.7 hPa NW 8 km/h 19.3 km/h 56% 0 mm
09:44 5.4 °C -2.9 °C 1027.7 hPa NW 9.7 km/h 20.9 km/h 55% 0 mm
09:50 5.3 °C -2.7 °C 1028 hPa North 14.5 km/h 22.5 km/h 56% 0 mm
09:55 5.6 °C -2.8 °C 1028 hPa NW 14.5 km/h 20.9 km/h 55% 0 mm
10:00 5.7 °C -2.4 °C 1028 hPa NW 11.3 km/h 16.1 km/h 56% 0 mm
10:05 5.8 °C -2.5 °C 1028.3 hPa NNW 4.8 km/h 17.7 km/h 55% 0 mm
10:10 5.9 °C -2.2 °C 1028.3 hPa WNW 12.9 km/h 14.5 km/h 56% 0 mm
10:15 5.9 °C -2.7 °C 1028.7 hPa WNW 12.9 km/h 22.5 km/h 54% 0 mm
10:20 6.1 °C -2.3 °C 1028.7 hPa NNE 16.1 km/h 20.9 km/h 55% 0 mm
10:25 6.2 °C -2.4 °C 1028.7 hPa NNW 12.9 km/h 16.1 km/h 54% 0 mm
10:30 6.2 °C -2.4 °C 1028.7 hPa WNW 11.3 km/h 17.7 km/h 54% 0 mm
10:35 6.4 °C -1.9 °C 1028.7 hPa NNW 11.3 km/h 20.9 km/h 55% 0 mm
10:37 6.4 °C -2.5 °C 1028.7 hPa NW 8 km/h 22.5 km/h 53% 0 mm
10:42 6.4 °C -2.7 °C 1029 hPa WNW 8 km/h 24.1 km/h 52% 0 mm
10:47 6.6 °C -1.8 °C 1029 hPa North 12.9 km/h 17.7 km/h 55% 0 mm
10:52 6.6 °C -2 °C 1029 hPa NW 8 km/h 19.3 km/h 54% 0 mm
10:57 6.8 °C -2.1 °C 1029 hPa NNW 16.1 km/h 16.1 km/h 53% 0 mm
11:02 6.8 °C -2.7 °C 1029 hPa NW 9.7 km/h 20.9 km/h 51% 0 mm
11:07 6.9 °C -3.1 °C 1029 hPa NW 14.5 km/h 20.9 km/h 49% 0 mm
11:12 7 °C -2.7 °C 1029 hPa North 17.7 km/h 17.7 km/h 50% 0 mm
11:17 7 °C -3 °C 1029.3 hPa NNE 8 km/h 20.9 km/h 49% 0 mm
11:22 7.1 °C -2.1 °C 1029.3 hPa NNW 12.9 km/h 16.1 km/h 52% 0 mm
11:28 7.3 °C -2.1 °C 1029.3 hPa NE 11.3 km/h 16.1 km/h 51% 0 mm
11:33 7.3 °C -3.5 °C 1029.3 hPa NNW 14.5 km/h 19.3 km/h 46% 0 mm
11:38 7.6 °C -3 °C 1029.3 hPa NNW 17.7 km/h 22.5 km/h 47% 0 mm
11:43 7.6 °C -3.1 °C 1029.3 hPa WNW 9.7 km/h 17.7 km/h 47% 0 mm
11:48 7.8 °C -2.6 °C 1029.3 hPa NNW 9.7 km/h 12.9 km/h 48% 0 mm
11:53 7.8 °C -2.8 °C 1029.3 hPa NNE 6.4 km/h 17.7 km/h 47% 0 mm
11:58 7.7 °C -2.7 °C 1029.3 hPa NNW 19.3 km/h 19.3 km/h 48% 0 mm
12:03 8.1 °C -1.7 °C 1029.7 hPa NW 8 km/h 17.7 km/h 50% 0 mm
12:08 8.2 °C -2.8 °C 1029.7 hPa NNE 8 km/h 12.9 km/h 46% 0 mm
12:13 8.4 °C -2.3 °C 1029.7 hPa NW 12.9 km/h 16.1 km/h 47% 0 mm
12:18 8.6 °C -3 °C 1029.7 hPa NNW 12.9 km/h 12.9 km/h 44% 0 mm
12:23 8.5 °C -3.3 °C 1029.3 hPa NNW 11.3 km/h 16.1 km/h 43% 0 mm
12:28 8.6 °C -3.6 °C 1029.3 hPa NW 9.7 km/h 11.3 km/h 42% 0 mm
12:33 8.7 °C -3.4 °C 1029.3 hPa NW 12.9 km/h 17.7 km/h 42% 0 mm
12:38 8.3 °C -3.5 °C 1029.3 hPa NNE 3.2 km/h 9.7 km/h 43% 0 mm
12:43 8.9 °C -2.1 °C 1029.3 hPa NW 8 km/h 11.3 km/h 46% 0 mm
12:48 9 °C -4.2 °C 1029.3 hPa NNW 11.3 km/h 12.9 km/h 39% 0 mm
12:53 9 °C -4.2 °C 1029.3 hPa NNW 3.2 km/h 12.9 km/h 39% 0 mm
12:58 9.1 °C -2.5 °C 1029.3 hPa NNW 1.6 km/h 11.3 km/h 44% 0 mm
13:03 9.2 °C -3.7 °C 1029.3 hPa NNE 8 km/h 16.1 km/h 40% 0 mm
13:08 9.6 °C -2.1 °C 1029.3 hPa WNW 9.7 km/h 9.7 km/h 44% 0 mm
13:13 9.6 °C -3.3 °C 1029.3 hPa North 6.4 km/h 16.1 km/h 40% 0 mm
13:18 9.5 °C -3.8 °C 1029.3 hPa WSW 1.6 km/h 9.7 km/h 39% 0 mm
13:23 9.7 °C -3.9 °C 1029.3 hPa NNW 12.9 km/h 20.9 km/h 38% 0 mm
13:29 9.4 °C -4.9 °C 1029.3 hPa NW 6.4 km/h 17.7 km/h 36% 0 mm
13:34 9.6 °C -4.4 °C 1029.3 hPa NW 6.4 km/h 24.1 km/h 37% 0 mm
13:39 9.8 °C -3.4 °C 1029.3 hPa NW 9.7 km/h 19.3 km/h 39% 0 mm
13:44 9.9 °C -4.1 °C 1029.3 hPa NW 11.3 km/h 12.9 km/h 37% 0 mm
13:49 9.8 °C -4.5 °C 1029.3 hPa NW 11.3 km/h 12.9 km/h 36% 0 mm
13:54 10.2 °C -4.2 °C 1029.3 hPa NNW 9.7 km/h 20.9 km/h 36% 0 mm
13:59 10.2 °C -4.6 °C 1029.3 hPa West 12.9 km/h 17.7 km/h 35% 0 mm
14:04 9.9 °C -5.2 °C 1029.3 hPa NW 11.3 km/h 16.1 km/h 34% 0 mm
14:09 10.1 °C -2.6 °C 1029.3 hPa NW 14.5 km/h 14.5 km/h 41% 0 mm
14:14 10.1 °C -5.1 °C 1029.3 hPa WNW 11.3 km/h 14.5 km/h 34% 0 mm
14:19 10.3 °C -3.3 °C 1029.3 hPa North 12.9 km/h 12.9 km/h 38% 0 mm
14:24 10.6 °C -5.1 °C 1029.3 hPa WNW 4.8 km/h 16.1 km/h 33% 0 mm
14:29 10.4 °C -5.9 °C 1029.3 hPa NNW 3.2 km/h 9.7 km/h 31% 0 mm
14:34 10.6 °C -5.1 °C 1029.3 hPa NW 11.3 km/h 14.5 km/h 33% 0 mm
14:39 10.7 °C -4.2 °C 1029 hPa NW 6.4 km/h 12.9 km/h 35% 0 mm
14:44 10.6 °C -5.4 °C 1029.3 hPa NNW 4.8 km/h 11.3 km/h 32% 0 mm
14:49 10.6 °C -3.5 °C 1029 hPa North 6.4 km/h 8 km/h 37% 0 mm
14:54 10.7 °C -4.2 °C 1029 hPa North 9.7 km/h 19.3 km/h 35% 0 mm
14:59 10.8 °C -3.7 °C 1029 hPa NNE 8 km/h 16.1 km/h 36% 0 mm
15:04 10.6 °C -5.1 °C 1029 hPa East 3.2 km/h 14.5 km/h 33% 0 mm
15:09 10.6 °C -4.2 °C 1029 hPa NE 9.7 km/h 14.5 km/h 35% 0 mm
15:14 10.8 °C -4.4 °C 1028.7 hPa NNW 11.3 km/h 19.3 km/h 34% 0 mm
15:19 11 °C -4.7 °C 1029 hPa NNE 8 km/h 17.7 km/h 33% 0 mm
15:24 10.9 °C -3.6 °C 1028.7 hPa NNE 8 km/h 16.1 km/h 36% 0 mm
15:29 11 °C -4.3 °C 1029 hPa NNE 14.5 km/h 17.7 km/h 34% 0 mm
15:34 11 °C -5.5 °C 1029 hPa WNW 8 km/h 14.5 km/h 31% 0 mm
15:39 11.1 °C -5.4 °C 1029 hPa West 9.7 km/h 16.1 km/h 31% 0 mm
15:45 11.2 °C -3.3 °C 1029 hPa North 8 km/h 11.3 km/h 36% 0 mm
15:50 11.2 °C -4.9 °C 1028.7 hPa NNW 14.5 km/h 14.5 km/h 32% 0 mm
15:55 11.1 °C -5.8 °C 1028.7 hPa NNE 6.4 km/h 9.7 km/h 30% 0 mm
16:00 11.1 °C -5.4 °C 1028.7 hPa NE 8 km/h 12.9 km/h 31% 0 mm
16:05 11.1 °C -4.9 °C 1028.7 hPa NW 9.7 km/h 14.5 km/h 32% 0 mm
16:10 11.2 °C -5.3 °C 1028.7 hPa NE 9.7 km/h 14.5 km/h 31% 0 mm
16:15 11.2 °C -4.5 °C 1028.7 hPa NNE 4.8 km/h 8 km/h 33% 0 mm
16:20 11.3 °C -4.8 °C 1029 hPa North 12.9 km/h 14.5 km/h 32% 0 mm
16:25 11.3 °C -5.6 °C 1029 hPa North 12.9 km/h 17.7 km/h 30% 0 mm
16:30 11.3 °C -5.2 °C 1029 hPa NNW 4.8 km/h 11.3 km/h 31% 0 mm
16:35 11.3 °C -6.1 °C 1029 hPa SE 1.6 km/h 4.8 km/h 29% 0 mm
16:40 11.4 °C -5.1 °C 1029 hPa North 9.7 km/h 16.1 km/h 31% 0 mm
16:45 11.3 °C -5.2 °C 1029 hPa NE 3.2 km/h 8 km/h 31% 0 mm
16:50 11.2 °C -6.2 °C 1028.7 hPa NE 3.2 km/h 11.3 km/h 29% 0 mm
16:55 11.2 °C -5.3 °C 1028.7 hPa NE 8 km/h 9.7 km/h 31% 0 mm
17:00 11.2 °C -4.9 °C 1028.7 hPa NNW 11.3 km/h 12.9 km/h 32% 0 mm
17:05 11.4 °C -3.9 °C 1029 hPa NNW 4.8 km/h 11.3 km/h 34% 0 mm
17:10 11.2 °C -5.3 °C 1029 hPa NW 3.2 km/h 11.3 km/h 31% 0 mm
17:15 11.3 °C -5.2 °C 1029 hPa NE 4.8 km/h 6.4 km/h 31% 0 mm
17:20 11.3 °C -5.7 °C 1029 hPa NNW 6.4 km/h 16.1 km/h 30% 0 mm
17:25 11.2 °C -5.7 °C 1029 hPa NW 3.2 km/h 8 km/h 30% 0 mm
17:30 11.3 °C -5.2 °C 1029 hPa NNE 1.6 km/h 4.8 km/h 31% 0 mm
17:35 11.2 °C -5.3 °C 1029 hPa NNE 4.8 km/h 11.3 km/h 31% 0 mm
17:41 11.1 °C -6.7 °C 1029 hPa NNE 4.8 km/h 8 km/h 28% 0 mm
17:46 11.2 °C -4.9 °C 1029 hPa North 4.8 km/h 6.4 km/h 32% 0 mm
17:51 11.2 °C -6.7 °C 1029 hPa NNW 1.6 km/h 6.4 km/h 28% 0 mm
17:56 11.2 °C -4.9 °C 1029 hPa East 1.6 km/h 6.4 km/h 32% 0 mm
18:01 10.9 °C -5.2 °C 1029 hPa East 4.8 km/h 8 km/h 32% 0 mm
18:06 10.7 °C -4.9 °C 1029 hPa ENE 3.2 km/h 6.4 km/h 33% 0 mm
18:11 10.7 °C -4.9 °C 1029 hPa ENE 3.2 km/h 4.8 km/h 33% 0 mm
18:16 10.6 °C -3.9 °C 1029 hPa East 6.4 km/h 6.4 km/h 36% 0 mm
18:21 10.3 °C -4.8 °C 1029 hPa ENE 1.6 km/h 8 km/h 34% 0 mm
18:26 10.2 °C -4.2 °C 1029 hPa East 1.6 km/h 3.2 km/h 36% 0 mm
18:31 10.1 °C -4.3 °C 1028.7 hPa ENE 3.2 km/h 4.8 km/h 36% 0 mm
18:36 9.7 °C -4.3 °C 1029 hPa ENE 3.2 km/h 4.8 km/h 37% 0 mm
18:41 9.5 °C -4.8 °C 1029 hPa ENE 1.6 km/h 4.8 km/h 36% 0 mm
18:46 9.3 °C -5 °C 1029 hPa Calm   3.2 km/h 36% 0 mm
18:51 9.2 °C -5.1 °C 1029 hPa Calm   1.6 km/h 36% 0 mm
18:56 9 °C -5.3 °C 1029 hPa East 3.2 km/h 3.2 km/h 36% 0 mm
19:01 8.8 °C -5.4 °C 1029 hPa East 1.6 km/h 3.2 km/h 36% 0 mm
19:06 8.7 °C -5.6 °C 1029 hPa East 1.6 km/h 1.6 km/h 36% 0 mm
19:12 8.5 °C -5.3 °C 1029 hPa East 1.6 km/h 3.2 km/h 37% 0 mm
19:17 8.5 °C -5.7 °C 1029 hPa NE 1.6 km/h 4.8 km/h 36% 0 mm
19:22 8.3 °C -5.2 °C 1029 hPa East 3.2 km/h 8 km/h 38% 0 mm
19:27 8.1 °C -5 °C 1029 hPa East 4.8 km/h 8 km/h 39% 0 mm
19:32 7.9 °C -4.9 °C 1029 hPa East 4.8 km/h 6.4 km/h 40% 0 mm
19:37 7.7 °C -4.4 °C 1029 hPa ENE 3.2 km/h 6.4 km/h 42% 0 mm
19:42 7.6 °C -4.8 °C 1029 hPa East 3.2 km/h 4.8 km/h 41% 0 mm
19:47 7.4 °C -4.9 °C 1029 hPa ENE 3.2 km/h 6.4 km/h 41% 0 mm
19:52 7.4 °C -5 °C 1029 hPa East 1.6 km/h 4.8 km/h 41% 0 mm
19:57 7.3 °C -4.8 °C 1029 hPa East 4.8 km/h 6.4 km/h 42% 0 mm
20:02 7.2 °C -5.2 °C 1029 hPa ENE 6.4 km/h 6.4 km/h 41% 0 mm
20:07 7.2 °C -5.2 °C 1029 hPa East 3.2 km/h 6.4 km/h 41% 0 mm
20:12 6.9 °C -4.8 °C 1029 hPa NE 3.2 km/h 6.4 km/h 43% 0 mm
20:17 6.8 °C -4.9 °C 1029 hPa ENE 1.6 km/h 4.8 km/h 43% 0 mm
20:22 6.8 °C -5.2 °C 1029 hPa East 4.8 km/h 4.8 km/h 42% 0 mm
20:27 6.8 °C -5.2 °C 1029 hPa East 4.8 km/h 6.4 km/h 42% 0 mm
20:32 6.7 °C -5 °C 1029 hPa East 1.6 km/h 4.8 km/h 43% 0 mm
20:37 6.6 °C -5.4 °C 1029 hPa East 4.8 km/h 6.4 km/h 42% 0 mm
20:42 6.4 °C -5.2 °C 1029 hPa East 3.2 km/h 8 km/h 43% 0 mm
20:47 6.4 °C -5.3 °C 1029 hPa East 3.2 km/h 6.4 km/h 43% 0 mm
20:52 6.2 °C -4.8 °C 1029.3 hPa ESE 3.2 km/h 3.2 km/h 45% 0 mm
20:57 6 °C -4.7 °C 1029.3 hPa ENE 4.8 km/h 4.8 km/h 46% 0 mm
21:02 5.8 °C -4.7 °C 1029.3 hPa ESE 3.2 km/h 4.8 km/h 47% 0 mm
21:07 5.5 °C -4.6 °C 1029.3 hPa ESE 3.2 km/h 4.8 km/h 48% 0 mm
21:12 5.3 °C -4.8 °C 1029.3 hPa ESE 1.6 km/h 3.2 km/h 48% 0 mm
21:17 5.2 °C -4.6 °C 1029.3 hPa ESE 1.6 km/h 3.2 km/h 49% 0 mm
21:22 5.1 °C -4.8 °C 1029.3 hPa Calm   3.2 km/h 49% 0 mm
21:27 4.9 °C -4.9 °C 1029.7 hPa ESE 3.2 km/h 3.2 km/h 49% 0 mm
21:33 5 °C -5.1 °C 1029.7 hPa ESE 3.2 km/h 4.8 km/h 48% 0 mm
21:38 5.1 °C -5.3 °C 1029.7 hPa East 3.2 km/h 4.8 km/h 47% 0 mm
21:43 5.1 °C -5.1 °C 1029.7 hPa ESE 3.2 km/h 3.2 km/h 48% 0 mm
21:48 4.9 °C -5.2 °C 1029.7 hPa East 4.8 km/h 6.4 km/h 48% 0 mm
21:53 4.9 °C -4.9 °C 1029.7 hPa ESE 1.6 km/h 3.2 km/h 49% 0 mm
21:58 4.8 °C -5 °C 1030 hPa East 1.6 km/h 3.2 km/h 49% 0 mm
22:03 4.7 °C -4.9 °C 1030 hPa East 1.6 km/h 3.2 km/h 50% 0 mm
22:08 4.7 °C -5.1 °C 1030 hPa East 1.6 km/h 3.2 km/h 49% 0 mm
22:13 4.7 °C -5.1 °C 1030 hPa ESE 3.2 km/h 3.2 km/h 49% 0 mm
22:18 4.8 °C -5 °C 1030 hPa Calm   3.2 km/h 49% 0 mm
22:23 4.8 °C -5.3 °C 1030.4 hPa ESE 3.2 km/h 3.2 km/h 48% 0 mm
22:28 4.8 °C -5.3 °C 1030 hPa Calm   1.6 km/h 48% 0 mm
22:33 4.8 °C -5.6 °C 1030 hPa ESE 4.8 km/h 4.8 km/h 47% 0 mm
22:39 4.8 °C -5.3 °C 1030 hPa ESE 3.2 km/h 4.8 km/h 48% 0 mm
22:44 4.8 °C -5.5 °C 1030 hPa ESE 4.8 km/h 6.4 km/h 47% 0 mm
22:49 4.7 °C -5.1 °C 1030 hPa East 3.2 km/h 4.8 km/h 49% 0 mm
22:54 4.7 °C -5.4 °C 1030 hPa ESE 4.8 km/h 4.8 km/h 48% 0 mm
22:59 4.6 °C -5.4 °C 1030 hPa ESE 6.4 km/h 6.4 km/h 48% 0 mm
23:04 4.6 °C -5.4 °C 1030 hPa ESE 3.2 km/h 4.8 km/h 48% 0 mm
23:09 4.6 °C -5.2 °C 1030 hPa ESE 4.8 km/h 8 km/h 49% 0 mm
23:14 4.4 °C -5.3 °C 1030 hPa ESE 4.8 km/h 6.4 km/h 49% 0 mm
23:19 4.3 °C -5.2 °C 1030 hPa ESE 4.8 km/h 6.4 km/h 50% 0 mm
23:24 4.3 °C -5.2 °C 1030 hPa ESE 3.2 km/h 6.4 km/h 50% 0 mm
23:29 4.3 °C -5.2 °C 1030.4 hPa SE 4.8 km/h 6.4 km/h 50% 0 mm
23:34 4.2 °C -5 °C 1030 hPa ESE 4.8 km/h 6.4 km/h 51% 0 mm
23:39 4.1 °C -5.1 °C 1030 hPa East 4.8 km/h 6.4 km/h 51% 0 mm
23:44 4 °C -4.7 °C 1030 hPa ESE 6.4 km/h 6.4 km/h 53% 0 mm
23:49 3.9 °C -4.8 °C 1030 hPa East 4.8 km/h 6.4 km/h 53% 0 mm
23:54 3.7 °C -4.6 °C 1030 hPa East 6.4 km/h 8 km/h 55% 0 mm
23:59 3.6 °C -4.6 °C 1029.7 hPa East 4.8 km/h 8 km/h 55% 0 mm
Compliments of Weather Underground